Time;durP1;ratioP1;P1;durP2;ratioP2;P2;SDS_P1;SDS_P2;PMS_P1;PMS_P2;Temp;Humidity;BMP_temperature;BMP_pressure;BME280_temperature;BME280_humidity;BME280_pressure;Samples;Min_cycle;Max_cycle;Signal;HPM_P1;HPM_P2
2023/08/06 00:01:47;;;;;;;9.00;7.10;;;;;;;17.25;73.97;95532.47;5044968;28;20177;-67
2023/08/06 00:04:12;;;;;;;15.17;7.47;;;;;;;17.21;74.05;95528.41;5045039;28;20174;-70
2023/08/06 00:06:37;;;;;;;11.93;6.93;;;;;;;17.11;74.21;95526.50;5044812;28;20278;-69
2023/08/06 00:09:03;;;;;;;8.93;6.80;;;;;;;17.24;73.91;95523.66;5044043;28;20240;-70
2023/08/06 00:11:28;;;;;;;14.23;7.93;;;;;;;17.16;74.30;95530.59;5044180;28;20182;-68
2023/08/06 00:13:53;;;;;;;10.70;7.23;;;;;;;17.11;74.18;95525.69;5044669;28;20175;-71
2023/08/06 00:16:19;;;;;;;7.80;7.00;;;;;;;17.14;74.33;95531.53;5044348;28;20269;-69
2023/08/06 00:18:44;;;;;;;8.57;7.60;;;;;;;17.14;74.45;95523.59;5044008;28;21015;-69
2023/08/06 00:21:12;;;;;;;10.10;7.67;;;;;;;17.26;74.07;95527.03;5037901;28;20176;-70
2023/08/06 00:23:37;;;;;;;7.70;7.00;;;;;;;17.22;74.27;95524.75;5024441;28;20214;-67
2023/08/06 00:26:02;;;;;;;9.17;7.20;;;;;;;17.18;74.12;95526.84;5024029;28;20406;-73
2023/08/06 00:28:28;;;;;;;8.70;7.60;;;;;;;17.11;74.06;95528.34;5024191;28;20183;-70
2023/08/06 00:30:57;;;;;;;10.33;8.00;;;;;;;17.07;74.36;95516.28;5024138;28;20292;-68
2023/08/06 00:33:23;;;;;;;9.70;7.90;;;;;;;17.08;74.62;95518.81;5024832;28;20195;-68
2023/08/06 00:35:48;;;;;;;9.53;7.37;;;;;;;17.03;74.53;95520.16;5024697;28;21145;-68
2023/08/06 00:38:14;;;;;;;6.77;6.10;;;;;;;17.03;74.45;95520.16;5024338;28;20448;-70
2023/08/06 00:40:39;;;;;;;6.53;5.93;;;;;;;17.03;74.22;95525.47;5024278;28;20907;-67
2023/08/06 00:43:05;;;;;;;7.10;6.50;;;;;;;16.95;74.52;95515.50;5027095;28;20171;-67
2023/08/06 00:45:37;;;;;;;7.50;6.80;;;;;;;16.88;74.79;95517.00;5028678;28;20229;-71
2023/08/06 00:48:04;;;;;;;9.13;7.23;;;;;;;16.87;74.71;95515.31;5027987;28;20198;-67
2023/08/06 00:50:30;;;;;;;9.77;6.53;;;;;;;16.87;75.38;95521.47;5027766;28;20640;-68
2023/08/06 00:52:56;;;;;;;8.30;7.50;;;;;;;16.84;74.97;95518.22;5047100;28;20429;-67
2023/08/06 00:55:21;;;;;;;8.90;7.20;;;;;;;16.84;74.94;95516.41;5042784;28;20213;-68
2023/08/06 00:57:47;;;;;;;14.37;7.40;;;;;;;16.85;74.43;95511.97;5043914;28;20221;-70
2023/08/06 01:00:13;;;;;;;9.23;6.50;;;;;;;16.81;74.06;95502.56;5036291;28;20652;-72
2023/08/06 01:02:38;;;;;;;7.60;6.00;;;;;;;16.82;74.06;95506.88;5040086;28;20180;-70
2023/08/06 01:05:04;;;;;;;7.67;6.97;;;;;;;16.70;74.13;95503.41;5028116;28;20254;-68
2023/08/06 01:07:51;;;;;;;6.30;5.13;;;;;;;16.63;74.58;95503.09;5043004;28;20195;-67
2023/08/06 01:10:34;;;;;;;5.77;5.20;;;;;;;16.70;73.58;95498.13;5046621;28;20600;-67
2023/08/06 01:13:16;;;;;;;5.57;4.97;;;;;;;16.65;73.81;95495.88;5031081;28;20414;-69
2023/08/06 01:15:49;;;;;;;5.43;4.83;;;;;;;16.68;73.54;95482.38;5027217;28;20410;-69
2023/08/06 01:18:15;;;;;;;5.00;4.53;;;;;;;16.60;73.31;95470.72;5030462;28;20493;-68
2023/08/06 01:20:41;;;;;;;5.60;5.00;;;;;;;16.49;73.41;95469.81;5046529;28;20902;-69
2023/08/06 01:23:06;;;;;;;4.90;4.50;;;;;;;16.67;72.55;95462.13;5046794;28;20171;-68
2023/08/06 01:25:46;;;;;;;8.70;4.73;;;;;;;16.64;72.88;95474.81;5046669;28;20171;-69
2023/08/06 01:28:23;;;;;;;4.40;4.00;;;;;;;16.64;72.45;95483.59;5048112;28;20182;-69
2023/08/06 01:30:50;;;;;;;5.63;4.23;;;;;;;16.57;72.41;95481.56;5048120;28;20467;-67
2023/08/06 01:33:21;;;;;;;4.90;4.23;;;;;;;16.50;72.79;95481.22;5046975;28;20844;-71
2023/08/06 01:35:48;;;;;;;5.40;4.60;;;;;;;16.56;72.67;95483.38;5047033;28;20750;-67
2023/08/06 01:38:13;;;;;;;6.03;4.50;;;;;;;16.45;72.82;95486.06;5046738;28;20421;-68
2023/08/06 01:40:39;;;;;;;5.13;4.37;;;;;;;16.39;73.24;95499.81;5046641;28;21268;-71
2023/08/06 01:43:04;;;;;;;5.20;4.57;;;;;;;16.36;73.39;95500.06;5046799;28;20175;-68
2023/08/06 01:45:30;;;;;;;4.63;3.93;;;;;;;16.27;73.00;95496.34;5046832;28;20170;-67
2023/08/06 01:47:55;;;;;;;6.00;4.53;;;;;;;16.27;73.37;95489.22;5046431;28;20198;-72
2023/08/06 01:50:20;;;;;;;6.00;5.40;;;;;;;16.23;73.19;95489.63;5046056;28;20206;-70
2023/08/06 01:52:46;;;;;;;5.03;4.00;;;;;;;16.30;72.58;95498.75;5046358;28;20244;-69
2023/08/06 01:55:11;;;;;;;6.20;3.93;;;;;;;16.24;72.76;95491.31;5038958;28;20191;-68
2023/08/06 01:57:36;;;;;;;6.20;4.10;;;;;;;16.26;72.65;95494.69;5026340;28;20665;-68
2023/08/06 02:00:03;;;;;;;4.43;4.03;;;;;;;16.19;73.12;95488.19;5026096;28;20207;-67
2023/08/06 02:02:28;;;;;;;10.47;4.10;;;;;;;16.16;73.24;95484.00;5026151;28;20237;-69
2023/08/06 02:04:54;;;;;;;5.20;3.97;;;;;;;16.16;73.26;95483.13;5026310;28;20406;-66
2023/08/06 02:07:19;;;;;;;5.10;4.60;;;;;;;16.10;73.67;95487.13;5026160;28;20313;-68
2023/08/06 02:09:44;;;;;;;6.33;4.50;;;;;;;16.12;73.75;95476.41;5029495;28;20203;-69
2023/08/06 02:12:10;;;;;;;4.33;3.93;;;;;;;16.03;74.05;95473.53;5038682;28;20175;-73
2023/08/06 02:14:35;;;;;;;6.93;4.17;;;;;;;16.02;74.06;95469.22;5049731;28;20696;-70
2023/08/06 02:17:01;;;;;;;5.17;4.50;;;;;;;16.04;73.72;95463.81;5049597;28;20252;-67
2023/08/06 02:19:26;;;;;;;6.13;4.43;;;;;;;16.04;73.66;95462.00;5049477;28;20719;-66
2023/08/06 02:21:51;;;;;;;6.30;4.73;;;;;;;16.08;73.78;95462.59;5049637;28;20181;-68
2023/08/06 02:24:17;;;;;;;9.70;4.90;;;;;;;16.02;73.87;95460.44;5049665;28;20231;-67
2023/08/06 02:26:42;;;;;;;4.90;4.10;;;;;;;16.02;73.82;95456.00;5049471;28;20195;-69
2023/08/06 02:29:07;;;;;;;5.00;4.50;;;;;;;16.02;73.99;95448.06;5049251;28;20195;-69
2023/08/06 02:31:33;;;;;;;4.77;4.17;;;;;;;15.98;74.23;95448.41;5049548;28;20166;-70
2023/08/06 02:33:58;;;;;;;5.23;4.70;;;;;;;15.98;74.12;95443.13;5049319;28;20182;-67
2023/08/06 02:36:24;;;;;;;5.03;4.37;;;;;;;16.06;73.81;95435.41;5049084;28;20218;-68
2023/08/06 02:38:49;;;;;;;5.00;4.10;;;;;;;16.12;73.57;95434.06;5049055;28;20180;-72
2023/08/06 02:41:15;;;;;;;5.63;4.23;;;;;;;16.10;73.43;95434.19;5045636;28;20174;-68
2023/08/06 02:43:40;;;;;;;4.60;4.10;;;;;;;16.05;73.91;95431.91;5040260;28;20250;-71
2023/08/06 02:46:06;;;;;;;5.23;4.73;;;;;;;16.11;73.55;95435.88;5029145;28;20234;-72
2023/08/06 02:48:31;;;;;;;9.70;4.47;;;;;;;16.08;73.84;95436.13;5042867;28;20217;-67
2023/08/06 02:50:58;;;;;;;4.93;4.23;;;;;;;15.99;74.27;95431.56;5048652;28;20230;-67
2023/08/06 02:53:23;;;;;;;4.83;4.27;;;;;;;16.01;74.41;95432.28;5048858;28;20170;-68
2023/08/06 02:55:49;;;;;;;5.97;5.37;;;;;;;16.00;73.96;95430.63;5048793;28;20500;-70
2023/08/06 02:58:15;;;;;;;5.30;4.23;;;;;;;16.13;73.54;95419.88;5049011;28;20705;-70
2023/08/06 03:00:40;;;;;;;5.93;5.40;;;;;;;15.97;74.20;95431.72;5034975;28;20198;-72
2023/08/06 03:03:06;;;;;;;7.00;4.70;;;;;;;15.82;75.18;95420.53;5028919;28;20410;-69
2023/08/06 03:05:31;;;;;;;5.00;4.60;;;;;;;15.71;75.56;95423.22;5029098;28;20171;-68
2023/08/06 03:07:56;;;;;;;6.17;4.67;;;;;;;15.73;75.33;95423.94;5033505;28;20741;-68
2023/08/06 03:10:22;;;;;;;5.20;4.70;;;;;;;15.65;75.71;95426.31;5041304;28;20206;-69
2023/08/06 03:12:47;;;;;;;7.80;5.30;;;;;;;15.78;75.80;95429.69;5038133;28;20178;-67
2023/08/06 03:15:13;;;;;;;6.70;4.43;;;;;;;15.82;74.91;95439.06;5038952;28;20179;-71
2023/08/06 03:17:38;;;;;;;6.83;4.73;;;;;;;15.70;75.62;95441.81;5028786;28;20888;-68
2023/08/06 03:20:04;;;;;;;6.00;4.70;;;;;;;15.68;75.91;95439.28;5038399;28;20175;-68
2023/08/06 03:22:30;;;;;;;8.43;5.10;;;;;;;15.64;75.46;95435.22;5030807;28;20889;-67
2023/08/06 03:24:55;;;;;;;6.40;5.60;;;;;;;15.60;76.25;95436.44;5033048;28;20424;-73
2023/08/06 03:27:20;;;;;;;5.77;5.17;;;;;;;15.46;76.95;95429.56;5048667;28;20237;-72
2023/08/06 03:29:49;;;;;;;9.20;5.50;;;;;;;15.56;76.20;95429.69;5048375;28;20211;-68
2023/08/06 03:32:15;;;;;;;12.70;5.47;;;;;;;15.56;76.33;95437.63;5048561;28;20170;-67
2023/08/06 03:34:40;;;;;;;11.10;5.83;;;;;;;15.55;76.11;95426.22;5048379;28;20914;-72
2023/08/06 03:37:05;;;;;;;7.57;5.00;;;;;;;15.45;76.18;95425.25;5043712;28;20835;-72
2023/08/06 03:39:31;;;;;;;6.07;4.97;;;;;;;15.44;76.52;95419.13;5028085;28;20682;-70
2023/08/06 03:41:56;;;;;;;9.23;5.73;;;;;;;15.38;76.47;95424.91;5028315;28;20582;-69
2023/08/06 03:44:21;;;;;;;11.87;4.60;;;;;;;15.38;76.91;95419.63;5028372;28;20179;-70
2023/08/06 03:46:47;;;;;;;5.73;5.23;;;;;;;15.25;77.41;95418.88;5028179;28;20300;-69
2023/08/06 03:49:12;;;;;;;6.77;5.10;;;;;;;15.12;77.58;95415.50;5028118;28;20313;-67
2023/08/06 03:51:37;;;;;;;8.43;5.10;;;;;;;14.93;78.13;95411.66;5028659;28;20199;-67
2023/08/06 03:54:03;;;;;;;9.20;5.90;;;;;;;15.02;77.70;95408.31;5029644;28;20180;-67
2023/08/06 03:56:28;;;;;;;10.63;5.43;;;;;;;14.94;78.10;95407.22;5027853;28;20195;-69
2023/08/06 03:58:53;;;;;;;6.50;5.87;;;;;;;14.99;77.72;95408.53;5027618;28;20584;-68
2023/08/06 04:01:19;;;;;;;5.03;4.53;;;;;;;15.07;77.56;95404.44;5028000;28;20187;-70
2023/08/06 04:03:44;;;;;;;6.00;5.40;;;;;;;15.02;77.33;95412.72;5027931;28;20167;-67
2023/08/06 04:06:09;;;;;;;5.40;4.80;;;;;;;15.00;77.19;95406.72;5027827;28;20268;-67
2023/08/06 04:08:35;;;;;;;6.60;5.13;;;;;;;15.06;76.71;95414.19;5027757;28;20648;-66
2023/08/06 04:11:00;;;;;;;5.60;4.27;;;;;;;14.91;77.17;95410.94;5027457;28;20234;-73
2023/08/06 04:13:25;;;;;;;9.97;5.13;;;;;;;15.05;76.89;95399.31;5043988;28;20605;-71
2023/08/06 04:15:51;;;;;;;9.93;5.23;;;;;;;15.09;76.27;95406.00;5027804;28;20197;-69
2023/08/06 04:18:16;;;;;;;10.43;4.50;;;;;;;15.20;75.84;95402.53;5027375;28;20180;-68
2023/08/06 04:20:46;;;;;;;18.17;6.70;;;;;;;15.12;75.86;95397.88;5034922;28;20807;-68
2023/08/06 04:23:11;;;;;;;6.83;4.77;;;;;;;15.20;75.06;95389.34;5043535;28;20527;-68
2023/08/06 04:25:37;;;;;;;9.73;4.80;;;;;;;15.23;74.89;95394.38;5047419;28;20463;-69
2023/08/06 04:28:02;;;;;;;8.93;5.37;;;;;;;15.31;74.41;95396.44;5035574;28;20203;-68
2023/08/06 04:30:28;;;;;;;12.57;5.03;;;;;;;15.30;74.36;95390.28;5026380;28;20739;-69
2023/08/06 04:32:53;;;;;;;8.80;4.60;;;;;;;15.30;74.59;95400.03;5027092;28;20267;-69
2023/08/06 04:35:18;;;;;;;6.00;5.23;;;;;;;15.31;74.02;95391.16;5027150;28;20175;-70
2023/08/06 04:37:44;;;;;;;7.57;4.30;;;;;;;15.31;74.18;95394.63;5027136;28;20194;-69
2023/08/06 04:40:10;;;;;;;5.87;3.70;;;;;;;15.45;73.33;95382.97;5038000;28;20935;-71
2023/08/06 04:42:35;;;;;;;7.43;4.30;;;;;;;15.43;73.30;95398.09;5047021;28;20719;-73
2023/08/06 04:45:04;;;;;;;7.13;4.30;;;;;;;15.46;73.36;95396.03;5047158;28;20182;-71
2023/08/06 04:47:29;;;;;;;8.63;4.53;;;;;;;15.44;73.04;95402.41;5046809;28;20194;-71
2023/08/06 04:49:55;;;;;;;9.43;5.30;;;;;;;15.46;73.43;95397.84;5046503;28;20472;-68
2023/08/06 04:52:20;;;;;;;5.60;4.00;;;;;;;15.48;73.32;95392.44;5047043;28;20175;-70
2023/08/06 04:54:45;;;;;;;9.83;4.40;;;;;;;15.45;73.43;95391.72;5046653;28;20184;-71
2023/08/06 04:57:11;;;;;;;10.33;5.30;;;;;;;15.49;73.65;95394.94;5046953;28;20198;-68
2023/08/06 04:59:36;;;;;;;6.27;4.13;;;;;;;15.57;73.40;95397.00;5046747;28;20167;-68
2023/08/06 05:02:02;;;;;;;5.67;4.53;;;;;;;15.56;73.54;95385.56;5046928;28;20183;-70
2023/08/06 05:04:28;;;;;;;10.67;4.87;;;;;;;15.53;73.24;95393.75;5034178;28;20171;-66
2023/08/06 05:06:53;;;;;;;7.43;4.97;;;;;;;15.63;73.07;95393.84;5033546;28;20573;-68
2023/08/06 05:09:19;;;;;;;4.60;3.70;;;;;;;15.65;72.82;95395.41;5029289;28;20457;-68
2023/08/06 05:11:46;;;;;;;8.00;4.20;;;;;;;15.56;73.74;95401.44;5030710;28;21099;-70
2023/08/06 05:14:11;;;;;;;8.10;4.77;;;;;;;15.57;73.42;95402.31;5028135;28;20425;-69
2023/08/06 05:16:36;;;;;;;7.10;4.30;;;;;;;15.58;73.58;95403.97;5026424;28;21027;-67
2023/08/06 05:19:02;;;;;;;10.13;4.33;;;;;;;15.53;73.36;95404.34;5032654;28;20194;-69
2023/08/06 05:21:27;;;;;;;7.87;4.60;;;;;;;15.57;73.82;95408.41;5030174;28;20190;-67
2023/08/06 05:23:53;;;;;;;13.73;4.50;;;;;;;15.44;74.08;95403.25;5043959;28;20215;-67
2023/08/06 05:26:19;;;;;;;6.13;4.33;;;;;;;15.49;73.92;95394.94;5026511;28;20664;-70
2023/08/06 05:28:45;;;;;;;7.20;3.70;;;;;;;15.48;73.77;95392.44;5031251;28;20217;-70
2023/08/06 05:31:11;;;;;;;4.10;3.60;;;;;;;15.30;74.87;95392.94;5029335;28;20436;-69
2023/08/06 05:33:36;;;;;;;5.67;3.63;;;;;;;15.17;74.79;95393.06;5035530;28;20524;-70
2023/08/06 05:36:02;;;;;;;9.13;3.77;;;;;;;15.21;74.79;95385.72;5043617;28;20780;-69
2023/08/06 05:38:27;;;;;;;7.17;2.80;;;;;;;15.16;75.03;95385.25;5034866;28;20183;-69
2023/08/06 05:40:53;;;;;;;5.30;3.53;;;;;;;15.14;75.07;95385.38;5026196;28;20171;-72
2023/08/06 05:43:18;;;;;;;6.40;4.00;;;;;;;15.09;74.87;95390.16;5036597;28;20267;-70
2023/08/06 05:45:46;;;;;;;3.60;3.23;;;;;;;15.26;74.12;95383.56;5041044;28;20179;-68
2023/08/06 05:48:12;;;;;;;5.97;3.67;;;;;;;15.29;74.01;95393.91;5032736;28;20260;-68
2023/08/06 05:50:37;;;;;;;4.27;3.50;;;;;;;15.32;74.12;95398.09;5043186;28;20461;-70
2023/08/06 05:53:03;;;;;;;7.00;3.27;;;;;;;15.42;73.42;95396.41;5046433;28;20186;-68
2023/08/06 05:55:28;;;;;;;5.27;3.10;;;;;;;15.48;73.80;95392.44;5049057;28;20179;-70
2023/08/06 05:57:54;;;;;;;4.23;2.87;;;;;;;15.49;73.42;95397.59;5040531;28;20227;-67
2023/08/06 06:00:21;;;;;;;4.23;3.43;;;;;;;15.77;72.96;95400.72;5046171;28;20171;-68
2023/08/06 06:02:47;;;;;;;5.10;3.90;;;;;;;16.44;70.27;95387.25;5034974;28;20640;-68
2023/08/06 06:05:12;;;;;;;6.10;3.97;;;;;;;16.85;68.57;95401.50;5042614;28;20440;-69
2023/08/06 06:07:37;;;;;;;17.13;3.93;;;;;;;17.55;66.41;95389.28;5032850;28;20712;-71
2023/08/06 06:10:03;;;;;;;5.67;3.00;;;;;;;17.89;65.07;95385.47;5041625;28;20209;-68
2023/08/06 06:12:28;;;;;;;6.43;3.47;;;;;;;18.28;63.50;95375.72;5038965;28;20190;-71
2023/08/06 06:14:54;;;;;;;7.10;3.93;;;;;;;18.69;62.07;95370.25;5049589;28;20186;-69
2023/08/06 06:17:19;;;;;;;4.40;3.03;;;;;;;18.89;61.38;95358.59;5049380;28;20195;-70
2023/08/06 06:19:45;;;;;;;5.30;3.67;;;;;;;19.13;61.19;95359.94;5039326;28;20880;-67
2023/08/06 06:22:10;;;;;;;2.77;2.40;;;;;;;19.54;59.98;95355.16;5043486;28;20625;-71
2023/08/06 06:24:35;;;;;;;6.70;2.77;;;;;;;19.94;59.22;95354.81;5039758;28;20175;-73
2023/08/06 06:27:01;;;;;;;3.93;2.60;;;;;;;19.64;59.63;95362.09;5044732;28;20281;-70
2023/08/06 06:29:26;;;;;;;8.47;2.60;;;;;;;19.71;59.48;95365.03;5032557;28;20211;-71
2023/08/06 06:31:51;;;;;;;5.20;2.67;;;;;;;19.17;60.18;95362.16;5039943;28;20186;-70
2023/08/06 06:34:17;;;;;;;5.03;2.50;;;;;;;18.49;62.78;95380.88;5044217;28;20183;-70
2023/08/06 06:36:42;;;;;;;14.57;3.90;;;;;;;18.23;63.61;95388.56;5035493;28;20199;-74
2023/08/06 06:39:08;;;;;;;8.93;3.17;;;;;;;17.99;64.23;95387.16;5045255;28;20175;-71
2023/08/06 06:41:33;;;;;;;8.13;3.10;;;;;;;18.03;63.91;95389.56;5045267;28;20178;-70
2023/08/06 06:43:59;;;;;;;2.97;2.60;;;;;;;18.09;63.91;95396.94;5034416;28;20191;-71
2023/08/06 06:46:24;;;;;;;7.53;3.23;;;;;;;18.55;62.83;95390.13;5035824;28;20199;-70
2023/08/06 06:48:49;;;;;;;8.90;2.63;;;;;;;19.44;60.57;95395.97;5037881;28;20192;-72
2023/08/06 06:51:15;;;;;;;4.43;2.40;;;;;;;19.93;58.11;95384.25;5040664;28;20262;-71
2023/08/06 06:53:40;;;;;;;3.47;2.17;;;;;;;19.94;58.29;95386.75;5040853;28;20179;-73
2023/08/06 06:56:06;;;;;;;6.10;2.47;;;;;;;19.63;58.92;95384.38;5041304;28;20214;-72
2023/08/06 06:58:32;;;;;;;3.20;2.37;;;;;;;19.19;59.61;95396.59;5039529;28;20179;-71
2023/08/06 07:00:57;;;;;;;4.80;2.10;;;;;;;18.74;60.38;95391.91;5038618;28;20179;-70
2023/08/06 07:03:23;;;;;;;2.83;2.10;;;;;;;18.33;61.34;95401.84;5035154;28;20860;-73
2023/08/06 07:05:49;;;;;;;4.83;2.13;;;;;;;18.22;62.06;95394.03;5037715;28;20239;-71
2023/08/06 07:08:15;;;;;;;15.60;1.90;;;;;;;18.08;63.33;95395.28;5040704;28;21711;-70
2023/08/06 07:10:41;;;;;;;6.43;2.70;;;;;;;18.04;62.70;95393.88;5036424;28;20454;-70
2023/08/06 07:13:07;;;;;;;4.27;2.27;;;;;;;18.14;62.97;95392.91;5036212;28;20187;-71
2023/08/06 07:15:32;;;;;;;3.60;1.67;;;;;;;18.27;61.53;95403.25;5038699;28;20449;-72
2023/08/06 07:17:57;;;;;;;2.30;1.40;;;;;;;18.32;61.59;95392.22;5038444;28;20272;-72
2023/08/06 07:20:23;;;;;;;4.80;1.53;;;;;;;18.45;60.67;95399.91;5038714;28;20197;-70
2023/08/06 07:22:49;;;;;;;7.50;1.87;;;;;;;18.46;60.93;95388.31;5040704;28;20179;-70
2023/08/06 07:25:15;;;;;;;3.53;1.73;;;;;;;18.69;60.60;95391.50;5039772;28;20266;-71
2023/08/06 07:27:40;;;;;;;2.73;1.60;;;;;;;19.56;57.65;95385.97;5037119;28;20552;-72
2023/08/06 07:30:06;;;;;;;3.80;1.50;;;;;;;19.32;57.31;95383.81;5038892;28;20245;-72
2023/08/06 07:32:32;;;;;;;3.70;1.80;;;;;;;19.14;57.37;95383.75;5038759;28;20171;-71
2023/08/06 07:35:00;;;;;;;3.20;1.17;;;;;;;18.76;58.42;95389.97;5036311;28;20207;-71
2023/08/06 07:37:28;;;;;;;2.17;1.30;;;;;;;18.59;58.42;95388.84;5037299;28;20199;-75
2023/08/06 07:39:54;;;;;;;2.20;1.40;;;;;;;18.56;58.20;95394.44;5035698;28;20434;-72
2023/08/06 07:42:20;;;;;;;2.90;1.17;;;;;;;19.08;56.15;95384.31;5038730;28;20500;-70
2023/08/06 07:44:56;;;;;;;2.70;1.23;;;;;;;19.13;55.86;95386.53;5038589;28;21075;-71
2023/08/06 07:47:22;;;;;;;5.20;1.40;;;;;;;19.22;55.72;95391.00;5037305;28;20437;-72
2023/08/06 07:49:47;;;;;;;2.83;1.20;;;;;;;18.90;54.13;95384.22;5036891;28;20453;-70
2023/08/06 07:52:13;;;;;;;1.97;0.73;;;;;;;18.83;53.92;95397.25;5050191;28;21234;-71
2023/08/06 07:54:38;;;;;;;2.27;1.00;;;;;;;19.20;53.38;95385.81;5067074;28;20873;-72
2023/08/06 07:57:04;;;;;;;2.60;1.03;;;;;;;19.72;52.10;95393.31;5059092;28;20210;-71
2023/08/06 07:59:29;;;;;;;2.17;1.00;;;;;;;19.65;52.34;95387.75;5061422;28;20180;-72
2023/08/06 08:01:54;;;;;;;3.60;0.90;;;;;;;19.54;52.05;95395.91;5061226;28;21054;-72
2023/08/06 08:04:20;;;;;;;1.70;0.80;;;;;;;18.90;52.62;95396.66;5064726;28;20223;-72
2023/08/06 08:06:46;;;;;;;1.20;0.60;;;;;;;19.12;53.41;95383.03;5062886;28;20301;-69
2023/08/06 08:09:13;;;;;;;1.40;0.70;;;;;;;19.25;53.84;95391.56;5060061;28;20528;-70
2023/08/06 08:11:39;;;;;;;3.93;0.80;;;;;;;18.94;55.02;95395.41;5066376;28;20565;-71
2023/08/06 08:14:04;;;;;;;2.13;0.97;;;;;;;18.74;55.60;95411.34;5062976;28;20428;-71
2023/08/06 08:16:29;;;;;;;3.27;1.00;;;;;;;18.60;56.35;95412.63;5066342;28;20206;-71
2023/08/06 08:18:55;;;;;;;8.67;1.60;;;;;;;18.78;56.57;95404.81;5062732;28;20190;-71
2023/08/06 08:21:20;;;;;;;2.27;1.13;;;;;;;18.90;55.94;95404.63;5064508;28;20174;-72
2023/08/06 08:23:45;;;;;;;5.73;1.70;;;;;;;19.09;55.53;95404.63;5064981;28;20248;-76
2023/08/06 08:26:11;;;;;;;4.40;1.03;;;;;;;19.01;54.94;95400.00;5061722;28;20251;-72
2023/08/06 08:28:36;;;;;;;2.00;1.17;;;;;;;18.82;56.79;95406.19;5064857;28;20261;-70
2023/08/06 08:31:01;;;;;;;2.47;1.10;;;;;;;18.65;59.19;95398.91;5064711;28;20309;-72
2023/08/06 08:33:27;;;;;;;1.97;0.90;;;;;;;18.43;59.32;95409.84;5064703;28;20261;-71
2023/08/06 08:35:52;;;;;;;1.50;0.87;;;;;;;18.23;60.26;95412.47;5062044;28;20192;-71
2023/08/06 08:38:17;;;;;;;1.80;1.07;;;;;;;18.17;61.29;95410.38;5065823;28;20243;-73
2023/08/06 08:40:47;;;;;;;2.23;0.90;;;;;;;18.09;61.13;95428.81;5062612;28;20178;-72
2023/08/06 08:43:14;;;;;;;3.37;0.97;;;;;;;18.01;61.50;95423.34;5061103;28;20524;-72
2023/08/06 08:45:42;;;;;;;5.00;1.20;;;;;;;17.83;61.56;95421.34;5062844;28;20447;-73
2023/08/06 08:48:12;;;;;;;1.70;0.87;;;;;;;17.72;61.67;95429.41;5059506;28;20480;-72
2023/08/06 08:50:38;;;;;;;2.30;1.00;;;;;;;17.67;62.02;95427.16;5065028;28;21122;-71
2023/08/06 08:53:04;;;;;;;2.70;1.13;;;;;;;17.66;62.11;95437.88;5048786;28;20432;-72
2023/08/06 08:55:30;;;;;;;1.60;0.70;;;;;;;17.76;62.15;95436.09;5063711;28;20528;-70
2023/08/06 08:57:55;;;;;;;6.77;1.03;;;;;;;17.66;62.11;95436.06;5056607;28;20531;-69
2023/08/06 09:00:20;;;;;;;2.13;1.00;;;;;;;17.68;62.32;95438.59;5052452;28;20178;-75
2023/08/06 09:02:46;;;;;;;3.17;1.13;;;;;;;17.63;63.18;95433.69;5052535;28;20221;-71
2023/08/06 09:05:12;;;;;;;1.87;1.07;;;;;;;17.59;62.21;95434.09;5062735;28;20186;-70
2023/08/06 09:07:44;;;;;;;2.60;1.30;;;;;;;17.61;62.10;95438.28;5056229;28;20881;-71
2023/08/06 09:10:13;;;;;;;5.73;1.13;;;;;;;17.60;63.12;95435.75;5052669;28;20463;-72
2023/08/06 09:12:39;;;;;;;2.57;1.10;;;;;;;17.50;63.70;95433.94;5063178;28;20813;-74
2023/08/06 09:15:05;;;;;;;5.00;0.97;;;;;;;17.49;62.60;95437.53;5056631;28;20432;-71
2023/08/06 09:17:31;;;;;;;5.07;1.30;;;;;;;17.48;63.44;95435.00;5048668;28;20202;-75
2023/08/06 09:19:56;;;;;;;2.90;0.93;;;;;;;17.55;63.71;95441.47;5061779;28;20198;-71
2023/08/06 09:22:21;;;;;;;2.70;1.03;;;;;;;17.51;64.29;95443.56;5059112;28;20183;-75
2023/08/06 09:24:47;;;;;;;2.57;0.93;;;;;;;17.57;63.40;95447.47;5059233;28;20178;-72
2023/08/06 09:27:14;;;;;;;4.37;1.17;;;;;;;17.46;63.75;95447.59;5060093;28;20229;-72
2023/08/06 09:29:45;;;;;;;4.23;1.00;;;;;;;17.33;63.39;95453.09;5065368;28;20198;-73
2023/08/06 09:32:11;;;;;;;5.17;1.43;;;;;;;17.27;64.40;95464.25;5072468;28;20432;-71
2023/08/06 09:34:39;;;;;;;1.67;0.90;;;;;;;17.13;65.08;95462.78;5059281;28;20798;-71
2023/08/06 09:37:04;;;;;;;6.73;0.97;;;;;;;17.05;65.33;95463.41;5066939;28;20526;-71
2023/08/06 09:39:31;;;;;;;4.70;1.00;;;;;;;16.97;67.01;95467.69;5063785;28;20521;-70
2023/08/06 09:41:59;;;;;;;4.00;1.20;;;;;;;16.93;67.61;95467.09;5063018;28;20179;-74
2023/08/06 09:44:26;;;;;;;7.33;2.10;;;;;;;16.91;68.02;95471.69;5058002;28;20440;-73
2023/08/06 09:46:53;;;;;;;3.73;1.23;;;;;;;16.86;68.91;95476.53;5052739;28;20436;-73
2023/08/06 09:49:20;;;;;;;1.80;1.00;;;;;;;16.96;68.10;95473.94;5051781;28;20514;-73
2023/08/06 09:51:51;;;;;;;1.13;0.73;;;;;;;16.86;67.58;95487.13;5068240;28;20638;-75
2023/08/06 09:54:20;;;;;;;1.30;0.80;;;;;;;16.76;67.61;95480.88;5067568;28;20427;-71
2023/08/06 09:56:46;;;;;;;1.87;0.80;;;;;;;16.81;67.59;95478.72;5059138;28;20440;-75
2023/08/06 09:59:12;;;;;;;5.37;2.23;;;;;;;16.81;67.57;95481.38;5057525;28;20494;-72
2023/08/06 10:01:37;;;;;;;3.13;0.90;;;;;;;16.83;67.21;95472.31;5061449;28;20163;-71
2023/08/06 10:04:05;;;;;;;9.60;1.20;;;;;;;16.77;67.34;95482.56;5065191;28;20174;-71
2023/08/06 10:06:33;;;;;;;5.47;1.30;;;;;;;16.61;67.97;95478.53;5050306;28;20197;-75
2023/08/06 10:08:59;;;;;;;2.13;0.90;;;;;;;16.59;67.55;95488.44;5051509;28;20427;-72
2023/08/06 10:11:28;;;;;;;2.10;0.70;;;;;;;16.52;68.29;95481.94;5053469;28;20420;-72
2023/08/06 10:13:58;;;;;;;2.50;0.80;;;;;;;16.45;68.50;95488.72;5051755;28;20178;-73
2023/08/06 10:16:25;;;;;;;1.60;0.83;;;;;;;16.43;69.03;95496.78;5056383;28;20528;-71
2023/08/06 10:18:51;;;;;;;6.43;0.90;;;;;;;16.33;69.84;95495.03;5056580;28;20473;-71
2023/08/06 10:21:18;;;;;;;2.87;1.40;;;;;;;16.48;69.14;95491.09;5057123;28;20791;-70
2023/08/06 10:23:43;;;;;;;13.93;2.17;;;;;;;16.48;69.56;95493.75;5064947;28;20781;-72
2023/08/06 10:26:09;;;;;;;12.10;2.43;;;;;;;16.58;69.73;95489.38;5058334;28;20424;-73
2023/08/06 10:28:38;;;;;;;3.30;1.20;;;;;;;17.01;67.77;95477.91;5064112;28;20651;-71
2023/08/06 10:31:06;;;;;;;7.10;1.20;;;;;;;17.34;nan;95479.50;5073177;28;20198;-72
2023/08/06 10:33:45;;;;;;;2.90;0.90;;;;;;;17.59;65.97;95477.38;5067884;28;20428;-71
2023/08/06 10:36:11;;;;;;;2.50;0.80;;;;;;;17.65;65.00;95473.38;5077308;28;20862;-74
2023/08/06 10:38:45;;;;;;;1.47;0.70;;;;;;;17.74;64.57;95477.84;5075605;28;20519;-71
2023/08/06 10:41:16;;;;;;;1.80;0.80;;;;;;;17.60;64.76;95472.91;5062070;28;20440;-72
2023/08/06 10:43:44;;;;;;;2.03;0.80;;;;;;;17.47;64.96;95473.13;5065854;28;20429;-71
2023/08/06 10:46:12;;;;;;;3.10;0.90;;;;;;;17.56;65.11;95465.22;5053763;28;20423;-71
2023/08/06 10:48:41;;;;;;;3.97;0.80;;;;;;;17.67;65.11;95471.38;5055461;28;20505;-71
2023/08/06 10:51:11;;;;;;;1.70;0.77;;;;;;;17.63;65.71;95467.34;5052020;28;20471;-70
2023/08/06 10:53:37;;;;;;;12.33;1.93;;;;;;;17.67;65.82;95468.75;5064367;28;20424;-70
2023/08/06 10:56:15;;;;;;;6.57;1.20;;;;;;;17.61;67.13;95480.75;5063278;28;20424;-74
2023/08/06 10:58:42;;;;;;;8.50;1.90;;;;;;;17.40;67.22;95485.25;5057764;28;20425;-74
2023/08/06 11:01:07;;;;;;;3.73;0.87;;;;;;;17.20;67.36;95482.50;5060075;28;20441;-70
2023/08/06 11:03:33;;;;;;;4.80;1.30;;;;;;;17.11;68.10;95486.75;5062560;28;21122;-71
2023/08/06 11:05:59;;;;;;;6.03;1.40;;;;;;;17.04;68.52;95490.88;5054910;28;20258;-71
2023/08/06 11:08:29;;;;;;;2.27;0.83;;;;;;;17.11;68.12;95489.41;5057963;28;20501;-71
2023/08/06 11:10:55;;;;;;;1.33;0.80;;;;;;;17.21;67.58;95488.63;5059074;28;20237;-72
2023/08/06 11:13:26;;;;;;;2.90;0.80;;;;;;;17.17;67.60;95485.38;5064661;28;20436;-74
2023/08/06 11:15:52;;;;;;;2.20;1.27;;;;;;;17.13;68.15;95490.13;5058613;28;20417;-72
2023/08/06 11:18:18;;;;;;;2.90;0.80;;;;;;;17.00;69.00;95492.09;5057263;28;20955;-70
2023/08/06 11:20:45;;;;;;;7.07;1.60;;;;;;;16.99;69.28;95476.34;5060769;28;20859;-73
2023/08/06 11:23:10;;;;;;;4.30;1.00;;;;;;;16.96;69.43;95488.06;5051868;28;20421;-73
2023/08/06 11:25:45;;;;;;;1.97;0.97;;;;;;;16.82;69.66;95491.00;5051370;28;20434;-76
2023/08/06 11:28:11;;;;;;;3.90;1.20;;;;;;;16.86;69.47;95493.25;5065963;28;20205;-71